createdAt,value
2023-02-13T00:00:58.597Z,21.02
2023-02-13T00:03:26.194Z,21.23
2023-02-13T00:05:53.411Z,20.02
2023-02-13T00:08:20.677Z,18.85
2023-02-13T00:10:48.536Z,18.77
2023-02-13T00:13:19.226Z,19.83
2023-02-13T00:15:46.663Z,18.15
2023-02-13T00:18:13.923Z,17.70
2023-02-13T00:20:41.204Z,17.17
2023-02-13T00:23:08.423Z,17.42
2023-02-13T00:25:35.675Z,10.45
2023-02-13T00:28:03.062Z,10.05
2023-02-13T00:30:30.330Z,7.93
2023-02-13T00:32:58.884Z,7.18
2023-02-13T00:35:26.099Z,6.43
2023-02-13T00:37:53.459Z,4.97
2023-02-13T00:40:20.736Z,6.82
2023-02-13T00:42:58.534Z,4.35
2023-02-13T00:45:25.721Z,3.33
2023-02-13T00:47:53.046Z,3.72
2023-02-13T00:50:20.323Z,4.22
2023-02-13T00:52:47.815Z,4.18
2023-02-13T00:55:15.072Z,3.55
2023-02-13T00:57:42.352Z,2.90
2023-02-13T01:00:10.060Z,2.75
2023-02-13T01:02:38.467Z,2.70
2023-02-13T01:05:06.233Z,3.07
2023-02-13T01:07:33.617Z,3.35
2023-02-13T01:10:02.128Z,3.60
2023-02-13T01:12:29.335Z,4.22
2023-02-13T01:14:56.584Z,4.30
2023-02-13T01:17:23.866Z,4.20
2023-02-13T01:19:51.124Z,5.20
2023-02-13T01:22:18.313Z,5.85
2023-02-13T01:24:45.551Z,5.40
2023-02-13T01:27:12.763Z,5.25
2023-02-13T01:29:40.007Z,6.50
2023-02-13T01:32:07.441Z,7.35
2023-02-13T01:34:35.015Z,6.95
2023-02-13T01:37:02.225Z,8.75
2023-02-13T01:39:34.797Z,8.65
2023-02-13T01:42:02.043Z,9.27
2023-02-13T01:44:53.790Z,9.02
2023-02-13T01:47:45.192Z,9.35
2023-02-13T01:50:17.474Z,9.98
2023-02-13T01:52:55.389Z,10.73
2023-02-13T01:55:22.985Z,11.32
2023-02-13T01:57:55.089Z,10.95
2023-02-13T02:00:22.533Z,10.70
2023-02-13T02:02:58.396Z,10.98
2023-02-13T02:05:28.341Z,10.32
2023-02-13T02:07:56.279Z,10.07
2023-02-13T02:10:23.803Z,9.32
2023-02-13T02:13:15.043Z,9.50
2023-02-13T02:15:43.622Z,8.02
2023-02-13T02:18:16.516Z,9.43
2023-02-13T02:21:14.813Z,9.65
2023-02-13T02:24:09.115Z,9.95
2023-02-13T02:26:50.494Z,10.52
2023-02-13T02:29:51.548Z,11.25
2023-02-13T02:32:40.029Z,10.60
2023-02-13T02:35:33.978Z,11.57
2023-02-13T02:38:25.966Z,11.65
2023-02-13T02:41:03.729Z,12.10
2023-02-13T02:43:59.936Z,12.98
2023-02-13T02:46:38.003Z,12.55
2023-02-13T02:49:28.402Z,13.18
2023-02-13T02:52:13.834Z,13.90
2023-02-13T02:55:09.948Z,13.52
2023-02-13T02:58:04.796Z,13.98
2023-02-13T03:00:52.056Z,14.13
2023-02-13T03:03:41.005Z,14.30
2023-02-13T03:06:27.812Z,14.75
2023-02-13T03:09:17.557Z,13.75
2023-02-13T03:12:08.244Z,13.63
2023-02-13T03:14:35.786Z,14.15
2023-02-13T03:17:22.586Z,13.68
2023-02-13T03:20:30.918Z,14.07
2023-02-13T03:23:11.211Z,13.52
2023-02-13T03:25:58.369Z,13.98
2023-02-13T03:28:54.434Z,15.75
2023-02-13T03:31:45.584Z,15.40
2023-02-13T03:34:17.406Z,14.95
2023-02-13T03:37:29.001Z,14.27
2023-02-13T03:40:07.962Z,15.02
2023-02-13T03:42:43.164Z,14.43
2023-02-13T03:45:42.875Z,15.07
2023-02-13T03:48:30.951Z,14.98
2023-02-13T03:51:00.135Z,14.45
2023-02-13T03:53:30.231Z,11.10
2023-02-13T03:56:18.455Z,9.80
2023-02-13T03:59:08.437Z,7.00
2023-02-13T04:01:36.937Z,7.18
2023-02-13T04:04:12.739Z,7.00
2023-02-13T04:07:00.533Z,6.95
2023-02-13T04:09:29.558Z,7.03
2023-02-13T04:12:16.672Z,8.50
2023-02-13T04:15:01.345Z,9.73
2023-02-13T04:17:39.770Z,9.52
2023-02-13T04:20:08.143Z,9.43
2023-02-13T04:22:35.417Z,10.43
2023-02-13T04:25:02.630Z,11.27
2023-02-13T04:27:29.856Z,10.30
2023-02-13T04:29:57.133Z,10.80
2023-02-13T04:32:24.421Z,10.88
2023-02-13T04:34:51.664Z,10.90
2023-02-13T04:37:18.959Z,10.48
2023-02-13T04:39:48.355Z,9.73
2023-02-13T04:42:15.584Z,9.63
2023-02-13T04:44:42.847Z,9.40
2023-02-13T04:47:10.071Z,10.07
2023-02-13T04:49:37.341Z,9.40
2023-02-13T04:52:04.598Z,8.25
2023-02-13T04:54:31.864Z,9.30
2023-02-13T04:56:59.145Z,8.93
2023-02-13T04:59:26.441Z,10.30
2023-02-13T05:01:54.238Z,10.05
2023-02-13T05:04:21.586Z,11.13
2023-02-13T05:06:48.822Z,11.10
2023-02-13T05:09:15.982Z,11.80
2023-02-13T05:11:43.191Z,11.27
2023-02-13T05:14:11.491Z,12.15
2023-02-13T05:16:38.667Z,11.25
2023-02-13T05:19:05.821Z,12.23
2023-02-13T05:21:51.543Z,12.45
2023-02-13T05:24:20.724Z,12.45
2023-02-13T05:29:19.495Z,13.23
2023-02-13T05:31:58.402Z,14.50
2023-02-13T05:34:26.891Z,14.48
2023-02-13T05:36:54.628Z,15.18
2023-02-13T05:39:22.374Z,14.55
2023-02-13T05:41:50.236Z,14.73
2023-02-13T05:44:17.625Z,16.00
2023-02-13T05:46:47.068Z,14.80
2023-02-13T05:49:17.664Z,15.32
2023-02-13T05:51:46.497Z,16.70
2023-02-13T05:54:15.966Z,15.88
2023-02-13T05:56:44.551Z,14.60
2023-02-13T05:59:13.016Z,15.95
2023-02-13T06:01:40.271Z,16.47
2023-02-13T06:04:07.507Z,16.33
2023-02-13T06:06:36.793Z,15.82
2023-02-13T06:11:31.491Z,14.27
2023-02-13T06:13:59.611Z,13.95
2023-02-13T06:16:26.998Z,15.05
2023-02-13T06:18:54.271Z,14.60
2023-02-13T06:21:22.579Z,14.32
2023-02-13T06:23:49.982Z,13.73
2023-02-13T06:26:17.706Z,12.70
2023-02-13T06:28:45.051Z,13.85
2023-02-13T06:31:12.561Z,14.07
2023-02-13T06:33:39.827Z,13.90
2023-02-13T06:36:07.524Z,13.57
2023-02-13T06:38:34.723Z,12.63
2023-02-13T06:41:02.750Z,13.45
2023-02-13T06:43:30.108Z,15.27
2023-02-13T06:45:57.567Z,13.90
2023-02-13T06:48:25.155Z,12.95
2023-02-13T06:50:52.598Z,15.88
2023-02-13T06:53:24.918Z,16.05
2023-02-13T06:55:53.485Z,14.73
2023-02-13T06:58:22.146Z,14.53
2023-02-13T07:00:49.889Z,15.70
2023-02-13T07:03:17.627Z,14.73
2023-02-13T07:05:46.153Z,14.32
2023-02-13T07:08:13.882Z,14.68
2023-02-13T07:10:41.666Z,13.88
2023-02-13T07:13:09.658Z,13.57
2023-02-13T07:15:37.461Z,15.05
2023-02-13T07:18:05.598Z,14.88
2023-02-13T07:20:33.272Z,14.20
2023-02-13T07:23:04.551Z,14.48
2023-02-13T07:25:32.373Z,14.10
2023-02-13T07:28:06.963Z,14.23
2023-02-13T07:30:34.942Z,13.18
2023-02-13T07:33:05.738Z,13.05
2023-02-13T07:35:33.649Z,12.98
2023-02-13T07:38:01.078Z,12.60
2023-02-13T07:40:28.418Z,12.77
2023-02-13T07:42:56.393Z,12.10
2023-02-13T07:45:23.774Z,12.70
2023-02-13T07:47:50.944Z,11.75
2023-02-13T07:50:18.267Z,12.13
2023-02-13T07:52:52.701Z,11.25
2023-02-13T07:55:20.056Z,11.00
2023-02-13T07:57:47.294Z,10.88
2023-02-13T08:00:15.410Z,11.45
2023-02-13T08:02:42.677Z,11.30
2023-02-13T08:05:09.933Z,10.85
2023-02-13T08:07:37.312Z,11.20
2023-02-13T08:10:26.477Z,10.70
2023-02-13T08:15:21.163Z,11.32
2023-02-13T08:17:48.414Z,13.32
2023-02-13T08:20:15.682Z,11.88
2023-02-13T08:22:42.947Z,12.48
2023-02-13T08:25:10.282Z,13.00
2023-02-13T08:27:38.330Z,12.82
2023-02-13T08:30:06.507Z,12.73
2023-02-13T08:32:44.815Z,12.82
2023-02-13T08:35:19.735Z,13.43
2023-02-13T08:37:47.708Z,12.73
2023-02-13T08:40:15.325Z,13.52
2023-02-13T08:42:42.557Z,12.50
2023-02-13T08:45:11.791Z,12.82
2023-02-13T08:47:39.964Z,12.95
2023-02-13T08:50:07.693Z,13.18
2023-02-13T08:52:34.985Z,13.40
2023-02-13T08:55:03.507Z,13.02
2023-02-13T08:57:31.359Z,13.57
2023-02-13T08:59:58.817Z,11.77
2023-02-13T09:02:26.163Z,12.02
2023-02-13T09:04:53.467Z,13.18
2023-02-13T09:07:20.835Z,12.68
2023-02-13T09:09:48.088Z,12.88
2023-02-13T09:12:15.433Z,13.05
2023-02-13T09:14:44.824Z,12.98
2023-02-13T09:17:12.066Z,13.00
2023-02-13T09:19:39.269Z,11.40
2023-02-13T09:22:06.510Z,11.88
2023-02-13T09:24:33.676Z,12.88
2023-02-13T09:27:00.985Z,12.85
2023-02-13T09:29:31.347Z,13.07
2023-02-13T09:31:58.917Z,11.60
2023-02-13T09:34:26.600Z,12.20
2023-02-13T09:36:54.343Z,11.77
2023-02-13T09:39:21.609Z,12.50
2023-02-13T09:41:51.069Z,12.15
2023-02-13T09:44:38.370Z,11.52
2023-02-13T09:47:28.352Z,12.85
2023-02-13T09:50:04.014Z,12.60
2023-02-13T09:52:34.546Z,12.45
2023-02-13T09:55:02.394Z,12.25
2023-02-13T09:57:35.228Z,12.38
2023-02-13T10:00:15.325Z,12.13
2023-02-13T10:02:59.025Z,12.15
2023-02-13T10:05:49.691Z,11.52
2023-02-13T10:08:48.890Z,12.10
2023-02-13T10:14:11.051Z,12.98
2023-02-13T10:16:45.673Z,11.80
2023-02-13T10:19:37.638Z,11.55
2023-02-13T10:22:26.707Z,11.77
2023-02-13T10:25:04.650Z,12.60
2023-02-13T10:28:06.476Z,11.18
2023-02-13T10:30:37.097Z,11.70
2023-02-13T10:33:18.862Z,12.38
2023-02-13T10:35:59.056Z,11.40
2023-02-13T10:38:33.131Z,12.18
2023-02-13T10:41:34.264Z,13.07
2023-02-13T10:44:26.346Z,11.18
2023-02-13T10:47:11.704Z,12.07
2023-02-13T10:49:58.512Z,12.38
2023-02-13T10:52:46.912Z,11.82
2023-02-13T10:55:31.573Z,13.37
2023-02-13T10:58:20.033Z,11.43
2023-02-13T11:01:15.479Z,11.82
2023-02-13T11:03:42.707Z,12.25
2023-02-13T11:06:14.587Z,12.43
2023-02-13T11:08:45.827Z,12.07
2023-02-13T11:11:36.254Z,12.35
2023-02-13T11:14:19.637Z,13.20
2023-02-13T11:16:50.128Z,11.95
2023-02-13T11:19:20.161Z,12.52
2023-02-13T11:21:50.089Z,13.60
2023-02-13T11:24:23.738Z,13.40
2023-02-13T11:26:53.935Z,14.35
2023-02-13T11:29:32.859Z,12.43
2023-02-13T11:32:22.511Z,12.50
2023-02-13T11:34:51.171Z,13.75
2023-02-13T11:37:27.671Z,13.00
2023-02-13T11:39:57.672Z,14.10
2023-02-13T11:42:34.654Z,13.15
2023-02-13T11:45:19.707Z,13.20
2023-02-13T11:47:48.022Z,14.10
2023-02-13T11:50:27.330Z,14.95
2023-02-13T11:55:33.581Z,12.85
2023-02-13T11:58:04.581Z,14.43
2023-02-13T12:00:39.879Z,14.10
2023-02-13T12:03:25.999Z,13.00
2023-02-13T12:06:13.289Z,13.73
2023-02-13T12:08:42.796Z,13.50
2023-02-13T12:11:20.919Z,14.82
2023-02-13T12:13:49.099Z,13.75
2023-02-13T12:16:41.623Z,14.35
2023-02-13T12:19:13.670Z,14.60
2023-02-13T12:21:49.275Z,14.40
2023-02-13T12:24:30.230Z,13.85
2023-02-13T12:26:59.088Z,13.75
2023-02-13T12:30:06.677Z,14.35
2023-02-13T12:32:58.280Z,13.63
2023-02-13T12:35:44.325Z,14.45
2023-02-13T12:38:47.083Z,13.65
2023-02-13T12:41:22.666Z,14.88
2023-02-13T12:44:16.670Z,14.77
2023-02-13T12:47:11.414Z,14.65
2023-02-13T12:50:03.247Z,14.65
2023-02-13T12:52:43.762Z,14.65
2023-02-13T12:55:22.693Z,14.35
2023-02-13T12:58:11.074Z,14.93
2023-02-13T13:01:11.503Z,14.10
2023-02-13T13:03:46.247Z,14.57
2023-02-13T13:06:29.862Z,14.32
2023-02-13T13:09:21.908Z,14.07
2023-02-13T13:12:13.327Z,13.30
2023-02-13T13:15:02.378Z,12.77
2023-02-13T13:17:47.235Z,12.55
2023-02-13T13:20:52.283Z,12.20
2023-02-13T13:23:24.504Z,12.05
2023-02-13T13:26:06.180Z,11.85
2023-02-13T13:28:40.876Z,11.15
2023-02-13T13:31:09.312Z,11.52
2023-02-13T13:33:36.879Z,11.35
2023-02-13T13:36:13.245Z,10.90
2023-02-13T13:38:52.232Z,12.27
2023-02-13T13:41:27.659Z,11.68
2023-02-13T13:44:19.548Z,11.63
2023-02-13T13:47:22.950Z,11.07
2023-02-13T13:49:55.602Z,11.52
2023-02-13T13:52:39.620Z,11.32
2023-02-13T13:55:09.876Z,11.52
2023-02-13T13:57:58.690Z,11.52
2023-02-13T14:00:30.581Z,11.35
2023-02-13T14:03:22.934Z,11.90
2023-02-13T14:06:02.875Z,12.00
2023-02-13T14:08:46.068Z,12.93
2023-02-13T14:11:33.577Z,10.77
2023-02-13T14:14:01.669Z,12.00
2023-02-13T14:16:43.463Z,11.52
2023-02-13T14:19:35.014Z,11.88
2023-02-13T14:22:20.635Z,11.73
2023-02-13T14:24:59.051Z,11.63
2023-02-13T14:27:34.733Z,12.03
2023-02-13T15:12:38.036Z,12.85
2023-02-13T15:15:28.823Z,13.85
2023-02-13T15:18:04.752Z,12.57
2023-02-13T15:20:34.821Z,12.23
2023-02-13T15:23:11.177Z,12.38
2023-02-13T15:25:39.994Z,13.63
2023-02-13T15:28:16.777Z,13.30
2023-02-13T15:30:54.652Z,13.80
2023-02-13T15:33:24.242Z,12.82
2023-02-13T15:36:01.181Z,12.30
2023-02-13T15:38:36.466Z,13.20
2023-02-13T15:41:32.792Z,13.20
2023-02-13T15:44:00.473Z,13.55
2023-02-13T15:46:33.540Z,13.43
2023-02-13T15:49:06.414Z,13.15
2023-02-13T15:51:35.098Z,13.85
2023-02-13T15:54:08.192Z,13.60
2023-02-13T15:56:37.471Z,13.52
2023-02-13T16:01:45.765Z,13.27
2023-02-13T16:04:18.761Z,13.07
2023-02-13T16:06:48.313Z,13.30
2023-02-13T16:09:34.419Z,13.85
2023-02-13T16:12:16.801Z,14.50
2023-02-13T16:15:00.067Z,14.00
2023-02-13T16:17:31.903Z,13.88
2023-02-13T16:20:11.601Z,13.98
2023-02-13T16:22:53.505Z,14.23
2023-02-13T16:25:37.943Z,13.57
2023-02-13T16:28:15.005Z,14.10
2023-02-13T16:30:46.376Z,13.73
2023-02-13T16:33:16.364Z,13.68
2023-02-13T16:36:19.603Z,14.32
2023-02-13T16:38:50.640Z,12.48
2023-02-13T16:41:23.669Z,14.25
2023-02-13T16:43:55.639Z,13.75
2023-02-13T16:46:32.762Z,13.23
2023-02-13T16:49:01.616Z,13.85
2023-02-13T16:51:52.934Z,13.20
2023-02-13T16:54:45.976Z,13.68
2023-02-13T16:57:22.041Z,12.80
2023-02-13T16:59:56.279Z,13.52
2023-02-13T17:02:37.271Z,14.00
2023-02-13T17:05:11.651Z,13.35
2023-02-13T17:07:41.644Z,13.65
2023-02-13T17:10:18.472Z,14.23
2023-02-13T17:12:46.010Z,14.32
2023-02-13T17:15:15.193Z,14.32
2023-02-13T17:17:42.738Z,14.50
2023-02-13T17:20:33.496Z,14.40
2023-02-13T17:23:13.349Z,14.85
2023-02-13T17:25:42.468Z,14.30
2023-02-13T17:28:13.545Z,13.68
2023-02-13T17:30:42.152Z,14.82
2023-02-13T17:33:24.385Z,14.00
2023-02-13T17:35:52.516Z,14.82
2023-02-13T17:38:20.268Z,14.10
2023-02-13T17:40:49.179Z,14.75
2023-02-13T17:43:18.463Z,13.38
2023-02-13T17:48:13.500Z,14.05
2023-02-13T17:50:41.849Z,12.50
2023-02-13T17:53:16.736Z,12.82
2023-02-13T17:55:44.145Z,13.13
2023-02-13T17:58:12.512Z,12.98
2023-02-13T18:00:39.961Z,12.83
2023-02-13T18:03:07.253Z,13.63
2023-02-13T18:05:34.805Z,14.48
2023-02-13T18:08:02.722Z,14.00
2023-02-13T18:10:33.224Z,13.80
2023-02-13T18:13:05.513Z,15.05
2023-02-13T18:15:40.445Z,14.80
2023-02-13T18:18:08.812Z,13.38
2023-02-13T18:20:38.189Z,15.65
2023-02-13T18:23:14.476Z,13.95
2023-02-13T18:25:43.443Z,14.70
2023-02-13T18:28:10.965Z,15.85
2023-02-13T18:30:38.553Z,15.88
2023-02-13T18:33:06.254Z,16.05
2023-02-13T18:35:34.817Z,15.32
2023-02-13T18:38:02.383Z,15.40
2023-02-13T18:40:30.823Z,15.88
2023-02-13T18:42:58.133Z,14.77
2023-02-13T18:45:25.369Z,15.13
2023-02-13T18:47:52.847Z,16.15
2023-02-13T18:50:20.130Z,15.43
2023-02-13T18:52:47.355Z,16.63
2023-02-13T18:55:14.566Z,22.85
2023-02-13T18:57:43.573Z,17.33
2023-02-13T19:00:15.313Z,15.77
2023-02-13T19:02:42.699Z,16.30
2023-02-13T19:05:10.373Z,16.00
2023-02-13T19:07:37.719Z,14.52
2023-02-13T19:10:05.766Z,15.48
2023-02-13T19:12:33.066Z,16.15
2023-02-13T19:15:00.373Z,15.57
2023-02-13T19:17:27.624Z,16.48
2023-02-13T19:19:55.731Z,15.65
2023-02-13T19:22:23.047Z,16.88
2023-02-13T19:24:50.559Z,16.83
2023-02-13T19:27:17.867Z,16.67
2023-02-13T19:29:45.205Z,15.32
2023-02-13T19:32:12.511Z,16.48
2023-02-13T19:34:39.859Z,17.05
2023-02-13T19:37:07.078Z,15.18
2023-02-13T19:39:34.432Z,16.33
2023-02-13T19:42:02.064Z,15.70
2023-02-13T19:44:29.267Z,15.85
2023-02-13T19:46:57.023Z,19.77
2023-02-13T19:49:24.245Z,21.17
2023-02-13T19:51:51.934Z,20.27
2023-02-13T19:54:19.174Z,19.15
2023-02-13T19:56:47.742Z,28.50
2023-02-13T19:59:15.049Z,24.20
2023-02-13T20:01:42.950Z,23.33
2023-02-13T20:04:12.881Z,20.88
2023-02-13T20:06:40.147Z,20.83
2023-02-13T20:09:11.373Z,18.35
2023-02-13T20:11:39.585Z,18.30
2023-02-13T20:14:11.412Z,17.05
2023-02-13T20:16:39.411Z,18.52
2023-02-13T20:19:11.883Z,18.40
2023-02-13T20:21:41.393Z,16.92
2023-02-13T20:24:12.698Z,18.20
2023-02-13T20:26:40.327Z,20.00
2023-02-13T20:29:09.505Z,17.10
2023-02-13T20:31:37.061Z,17.92
2023-02-13T20:34:06.637Z,17.83
2023-02-13T20:36:34.584Z,17.48
2023-02-13T20:39:03.947Z,18.38
2023-02-13T20:41:33.563Z,17.80
2023-02-13T20:44:04.393Z,19.27
2023-02-13T20:46:36.493Z,17.85
2023-02-13T20:49:04.456Z,17.00
2023-02-13T20:51:34.817Z,16.77
2023-02-13T20:54:03.594Z,17.92
2023-02-13T20:56:31.351Z,18.83
2023-02-13T20:58:59.935Z,20.27
2023-02-13T21:01:33.360Z,19.38
2023-02-13T21:04:00.660Z,19.95
2023-02-13T21:06:30.465Z,18.85
2023-02-13T21:08:57.851Z,18.63
2023-02-13T21:11:25.861Z,19.17
2023-02-13T21:13:53.419Z,18.85
2023-02-13T21:16:23.400Z,18.83
2023-02-13T21:18:53.159Z,19.35
2023-02-13T21:21:21.453Z,19.55
2023-02-13T21:23:52.028Z,19.23
2023-02-13T21:26:19.364Z,23.05
2023-02-13T21:28:48.562Z,21.20
2023-02-13T21:31:27.618Z,21.20
2023-02-13T21:34:00.599Z,20.50
2023-02-13T21:36:27.827Z,20.15
2023-02-13T21:38:55.434Z,18.98
2023-02-13T21:41:23.539Z,20.23
2023-02-13T21:43:51.252Z,18.45
2023-02-13T21:46:26.880Z,19.92
2023-02-13T21:48:59.933Z,19.23
2023-02-13T21:51:29.076Z,21.35
2023-02-13T21:53:56.476Z,20.80
2023-02-13T21:56:26.403Z,22.15
2023-02-13T21:58:55.257Z,20.25
2023-02-13T22:01:28.501Z,21.20
2023-02-13T22:04:00.484Z,19.90
2023-02-13T22:06:29.312Z,20.42
2023-02-13T22:08:59.037Z,19.23
2023-02-13T22:11:26.690Z,21.20
2023-02-13T22:14:00.100Z,20.80
2023-02-13T22:16:29.606Z,20.63
2023-02-13T22:18:57.276Z,20.48
2023-02-13T22:21:27.334Z,20.70
2023-02-13T22:23:55.966Z,22.02
2023-02-13T22:26:28.844Z,20.60
2023-02-13T22:28:59.784Z,20.95
2023-02-13T22:31:28.623Z,20.50
2023-02-13T22:34:05.245Z,21.00
2023-02-13T22:36:38.454Z,20.85
2023-02-13T22:39:06.302Z,21.83
2023-02-13T22:41:33.759Z,21.40
2023-02-13T22:44:00.986Z,20.90
2023-02-13T22:46:32.370Z,21.60
2023-02-13T22:49:00.160Z,22.10
2023-02-13T22:51:30.664Z,21.50
2023-02-13T22:53:58.536Z,23.00
2023-02-13T22:56:27.208Z,20.98
2023-02-13T22:58:54.513Z,21.23
2023-02-13T23:01:24.141Z,22.40
2023-02-13T23:03:51.779Z,22.20
2023-02-13T23:06:20.002Z,22.63
2023-02-13T23:08:52.165Z,22.42
2023-02-13T23:11:39.001Z,22.48
2023-02-13T23:14:06.299Z,22.23
2023-02-13T23:16:53.479Z,22.75
2023-02-13T23:19:21.483Z,21.67
2023-02-13T23:21:49.488Z,21.75
2023-02-13T23:24:16.770Z,22.45
2023-02-13T23:26:44.233Z,22.00
2023-02-13T23:29:11.531Z,22.40
2023-02-13T23:31:38.965Z,23.15
2023-02-13T23:34:06.274Z,23.73
2023-02-13T23:36:33.489Z,23.27
2023-02-13T23:39:00.661Z,23.05
2023-02-13T23:41:27.943Z,24.35
2023-02-13T23:43:55.111Z,22.63
2023-02-13T23:46:22.478Z,23.55
2023-02-13T23:48:49.713Z,23.00
2023-02-13T23:51:18.339Z,23.02
2023-02-13T23:53:45.705Z,23.17
2023-02-13T23:56:13.005Z,23.67
2023-02-13T23:58:40.280Z,22.83
